Ruther Glen, VA (22546)

1:46 PM EDT on July 02, 2015 (GMT -0400)
Hewlett | | Change Station
CLOSE
Current Station
Personal Weather Station
Location: Ruther Glen, VA
Elevation: 302 ft
Nearby Weather Stations

Elev 302 ft 37.92 °N, 77.58 °W | Updated 44 seconds ago

Overcast
Overcast
80.8 °F
Feels Like 84 °F
N
0.0
Wind Variable Wind from West
Gusts 2.0 mph

Today
High -- | Low -- °F
--% Chance of Precip.
Yesterday
High -- | Low -- °F
Precip. -- in
5:51 AM 8:36 PM
Waxing Gibbous, 99% visible
Pressure 29.88 in
Visibility 5.0 miles
Clouds Few 1600 ft
Scattered Clouds 2500 ft
Mostly Cloudy 6000 ft
Heat Index 84 °F
Dew Point 69 °F
Humidity 68%
Rainfall 0.02 in
Snow Depth Not available.
UV 6 out of 12
Pollen 3.30 out of 12
Air Quality Not available.
Flu Activity Not available.
SPECI KOFP 021702Z AUTO VRB04KT 5SM HZ FEW016 SCT025 BKN060 25/21 A2988 RMK AO2 T02500211

More Conditions Fewer Conditions

Pressure 29.88 in
Visibility 5.0 miles
Clouds Few 1600 ft
Scattered Clouds 2500 ft
Mostly Cloudy 6000 ft
Heat Index 84 °F
Dew Point 69 °F
Humidity 68%
Rainfall 0.02 in
Snow Depth Not available.
UV 6 out of 12
Pollen 3.30 out of 12
Air Quality Not available.
Flu Activity Not available.
SPECI KOFP 021702Z AUTO VRB04KT 5SM HZ FEW016 SCT025 BKN060 25/21 A2988 RMK AO2 T02500211

More Conditions Fewer Conditions

10-Day Weather Forecast

×

Almanac

Astronomy

Jul. 02, 2015 Rise Set
Actual Time
Civil Twilight
Nautical Twilight
Astronomical Twilight
Moon
Length of Visible Light
Length of Day
Tomorrow will be .
, % of the Moon is Illuminated

Today's Extremes

State Highs State Lows

Community

WunderPhotos

Upload Photos

1,834,506 photos uploaded!

WunderBlogs® & News

Nearby

Air Quality

  Air Quality AQ Index Pollutant
Not available.

Snow Depth

Station Depth Elevation

Earthquake Activity

City Distance Mag. Time & Date
Minimum magnitude displayed is 2.5.

Coastal Water Temperatures

Place Temperature

Stations

Nearby Weather Stations

Station Location Temp. Windchill Dew Point Humidity Wind Precip. Elev Updated Type